PN73 weather

Beers Farm Airport
Orbisona/Rockhill, Pennsylvania, United States

Public forecast

Using degrees Fahrenheit for public forecast. Weather courtesy of forecast.io.

METAR (pilot weather report)

Closest report is Altoona Blair County Airport, 18.7 nm (34.7 km) WNW. Retrieved 2019/05/22 05:53 UTC (12 minutes ago):

KAOO 220553Z AUTO 00000KT 10SM CLR 09/06 A3020 RMK AO2 SLP228 60000 T00890061 10161 20089 53013

TAF (pilot weather forecast)

Closest forecast is Altoona Blair County Airport, 18.7 nm (34.7 km) WNW. Retrieved 2019/05/22 06:54 UTC (0 seconds ago):

TAF KAOO 220553Z 2206/2306 00000KT P6SM FEW250 FM221400 14007KT P6SM BKN250 FM221600 16009G15KT P6SM SCT070 OVC250 FM222200 16007KT P6SM SCT060 BKN150